sensor_id;sensor_type;location;lat;lon;timestamp;pressure;altitude;pressure_sealevel;temperature;humidity
41632;BME280;37452;51.938;4.624;2023-04-22T00:01:04;76847.84;;;-142.75;100.00
41632;BME280;37452;51.938;4.624;2023-04-22T00:03:30;76879.34;;;-142.75;100.00
41632;BME280;37452;51.938;4.624;2023-04-22T00:05:57;76877.38;;;-142.75;100.00
41632;BME280;37452;51.938;4.624;2023-04-22T00:08:22;76871.47;;;-142.75;100.00
41632;BME280;37452;51.938;4.624;2023-04-22T00:10:48;76901.00;;;-142.75;100.00
41632;BME280;37452;51.938;4.624;2023-04-22T00:13:13;76902.97;;;-142.75;100.00
41632;BME280;37452;51.938;4.624;2023-04-22T00:15:38;76924.63;;;-142.75;100.00
41632;BME280;37452;51.938;4.624;2023-04-22T00:18:03;76932.50;;;-142.75;100.00
41632;BME280;37452;51.938;4.624;2023-04-22T00:20:29;76899.03;;;-142.75;100.00
41632;BME280;37452;51.938;4.624;2023-04-22T00:22:56;76889.19;;;-142.75;100.00
41632;BME280;37452;51.938;4.624;2023-04-22T00:25:21;76889.19;;;-142.75;100.00
41632;BME280;37452;51.938;4.624;2023-04-22T00:27:46;76897.06;;;-142.75;100.00
41632;BME280;37452;51.938;4.624;2023-04-22T00:30:12;76899.03;;;-142.75;100.00
41632;BME280;37452;51.938;4.624;2023-04-22T00:32:37;76916.75;;;-142.75;100.00
41632;BME280;37452;51.938;4.624;2023-04-22T00:35:02;76912.81;;;-142.75;100.00
41632;BME280;37452;51.938;4.624;2023-04-22T00:37:28;76912.81;;;-142.75;100.00
41632;BME280;37452;51.938;4.624;2023-04-22T00:39:53;76938.41;;;-142.75;100.00
41632;BME280;37452;51.938;4.624;2023-04-22T00:42:18;76934.47;;;-142.75;100.00
41632;BME280;37452;51.938;4.624;2023-04-22T00:44:45;76946.28;;;-142.75;100.00
41632;BME280;37452;51.938;4.624;2023-04-22T00:47:11;76940.38;;;-142.75;100.00
41632;BME280;37452;51.938;4.624;2023-04-22T00:49:37;76969.91;;;-142.75;100.00
41632;BME280;37452;51.938;4.624;2023-04-22T00:52:03;76987.63;;;-142.75;100.00
41632;BME280;37452;51.938;4.624;2023-04-22T00:54:28;77011.25;;;-142.75;100.00
41632;BME280;37452;51.938;4.624;2023-04-22T00:56:54;77009.28;;;-142.75;100.00
41632;BME280;37452;51.938;4.624;2023-04-22T00:59:19;76999.44;;;-142.75;100.00
41632;BME280;37452;51.938;4.624;2023-04-22T01:01:45;76995.50;;;-142.75;100.00
41632;BME280;37452;51.938;4.624;2023-04-22T01:04:10;76993.53;;;-142.75;100.00
41632;BME280;37452;51.938;4.624;2023-04-22T01:06:36;76995.50;;;-142.75;100.00
41632;BME280;37452;51.938;4.624;2023-04-22T01:09:03;76985.66;;;-142.75;100.00
41632;BME280;37452;51.938;4.624;2023-04-22T01:11:28;77013.22;;;-142.75;100.00
41632;BME280;37452;51.938;4.624;2023-04-22T01:13:53;76971.88;;;-142.75;100.00
41632;BME280;37452;51.938;4.624;2023-04-22T01:16:19;76973.84;;;-142.75;100.00
41632;BME280;37452;51.938;4.624;2023-04-22T01:18:44;76958.09;;;-142.75;100.00
41632;BME280;37452;51.938;4.624;2023-04-22T01:21:10;76960.06;;;-142.75;100.00
41632;BME280;37452;51.938;4.624;2023-04-22T01:23:35;76944.31;;;-142.75;100.00
41632;BME280;37452;51.938;4.624;2023-04-22T01:26:01;76952.19;;;-142.75;100.00
41632;BME280;37452;51.938;4.624;2023-04-22T01:28:27;76960.06;;;-142.75;100.00
41632;BME280;37452;51.938;4.624;2023-04-22T01:30:52;76940.38;;;-142.75;100.00
41632;BME280;37452;51.938;4.624;2023-04-22T01:33:18;76944.31;;;-142.75;100.00
41632;BME280;37452;51.938;4.624;2023-04-22T01:35:43;76944.31;;;-142.75;100.00
41632;BME280;37452;51.938;4.624;2023-04-22T01:38:09;76934.47;;;-142.75;100.00
41632;BME280;37452;51.938;4.624;2023-04-22T01:40:35;76932.50;;;-142.75;100.00
41632;BME280;37452;51.938;4.624;2023-04-22T01:43:01;76948.25;;;-142.75;100.00
41632;BME280;37452;51.938;4.624;2023-04-22T01:45:27;76938.41;;;-142.75;100.00
41632;BME280;37452;51.938;4.624;2023-04-22T01:47:52;76952.19;;;-142.75;100.00
41632;BME280;37452;51.938;4.624;2023-04-22T01:50:18;76969.91;;;-142.75;100.00
41632;BME280;37452;51.938;4.624;2023-04-22T01:52:43;76975.81;;;-142.75;100.00
41632;BME280;37452;51.938;4.624;2023-04-22T01:55:09;76954.16;;;-142.75;100.00
41632;BME280;37452;51.938;4.624;2023-04-22T01:57:34;76940.38;;;-142.75;100.00
41632;BME280;37452;51.938;4.624;2023-04-22T01:59:59;76938.41;;;-142.75;100.00
41632;BME280;37452;51.938;4.624;2023-04-22T02:02:25;76944.31;;;-142.75;100.00
41632;BME280;37452;51.938;4.624;2023-04-22T02:04:50;76948.25;;;-142.75;100.00
41632;BME280;37452;51.938;4.624;2023-04-22T02:07:15;76952.19;;;-142.75;100.00
41632;BME280;37452;51.938;4.624;2023-04-22T02:09:40;76954.16;;;-142.75;100.00
41632;BME280;37452;51.938;4.624;2023-04-22T02:12:05;76952.19;;;-142.75;100.00
41632;BME280;37452;51.938;4.624;2023-04-22T02:14:31;76960.06;;;-142.75;100.00
41632;BME280;37452;51.938;4.624;2023-04-22T02:16:56;76960.06;;;-142.75;100.00
41632;BME280;37452;51.938;4.624;2023-04-22T02:19:21;76967.94;;;-142.75;100.00
41632;BME280;37452;51.938;4.624;2023-04-22T02:21:47;76985.66;;;-142.75;100.00
41632;BME280;37452;51.938;4.624;2023-04-22T02:24:12;76997.47;;;-142.75;100.00
41632;BME280;37452;51.938;4.624;2023-04-22T02:26:37;77021.09;;;-142.75;100.00
41632;BME280;37452;51.938;4.624;2023-04-22T02:29:02;77046.69;;;-142.75;100.00
41632;BME280;37452;51.938;4.624;2023-04-22T02:31:28;77078.19;;;-142.75;100.00
41632;BME280;37452;51.938;4.624;2023-04-22T02:33:53;77119.53;;;-142.75;100.00
41632;BME280;37452;51.938;4.624;2023-04-22T02:36:18;77137.25;;;-142.75;100.00
41632;BME280;37452;51.938;4.624;2023-04-22T02:38:43;77131.34;;;-142.75;100.00
41632;BME280;37452;51.938;4.624;2023-04-22T02:41:08;77117.56;;;-142.75;100.00
41632;BME280;37452;51.938;4.624;2023-04-22T02:43:34;77099.84;;;-142.75;100.00
41632;BME280;37452;51.938;4.624;2023-04-22T02:45:59;77070.31;;;-142.75;100.00
41632;BME280;37452;51.938;4.624;2023-04-22T02:48:25;77056.53;;;-142.75;100.00
41632;BME280;37452;51.938;4.624;2023-04-22T02:50:50;77042.75;;;-142.75;100.00
41632;BME280;37452;51.938;4.624;2023-04-22T02:53:15;77030.94;;;-142.75;100.00
41632;BME280;37452;51.938;4.624;2023-04-22T02:55:40;77011.25;;;-142.75;100.00
41632;BME280;37452;51.938;4.624;2023-04-22T02:58:05;77007.31;;;-142.75;100.00
41632;BME280;37452;51.938;4.624;2023-04-22T03:00:31;76993.53;;;-142.75;100.00
41632;BME280;37452;51.938;4.624;2023-04-22T03:02:56;76987.63;;;-142.75;100.00
41632;BME280;37452;51.938;4.624;2023-04-22T03:05:21;76979.75;;;-142.75;100.00
41632;BME280;37452;51.938;4.624;2023-04-22T03:07:46;76995.50;;;-142.75;100.00
41632;BME280;37452;51.938;4.624;2023-04-22T03:10:13;76995.50;;;-142.75;100.00
41632;BME280;37452;51.938;4.624;2023-04-22T03:12:38;77007.31;;;-142.75;100.00
41632;BME280;37452;51.938;4.624;2023-04-22T03:15:04;77017.16;;;-142.75;100.00
41632;BME280;37452;51.938;4.624;2023-04-22T03:17:29;77007.31;;;-142.75;100.00
41632;BME280;37452;51.938;4.624;2023-04-22T03:19:54;77019.13;;;-142.75;100.00
41632;BME280;37452;51.938;4.624;2023-04-22T03:22:19;77011.25;;;-142.75;100.00
41632;BME280;37452;51.938;4.624;2023-04-22T03:24:45;77007.31;;;-142.75;100.00
41632;BME280;37452;51.938;4.624;2023-04-22T03:27:10;77009.28;;;-142.75;100.00
41632;BME280;37452;51.938;4.624;2023-04-22T03:29:35;77011.25;;;-142.75;100.00
41632;BME280;37452;51.938;4.624;2023-04-22T03:32:00;76997.47;;;-142.75;100.00
41632;BME280;37452;51.938;4.624;2023-04-22T03:34:26;76995.50;;;-142.75;100.00
41632;BME280;37452;51.938;4.624;2023-04-22T03:36:51;76979.75;;;-142.75;100.00
41632;BME280;37452;51.938;4.624;2023-04-22T03:39:16;76981.72;;;-142.75;100.00
41632;BME280;37452;51.938;4.624;2023-04-22T03:41:41;76979.75;;;-142.75;100.00
41632;BME280;37452;51.938;4.624;2023-04-22T03:44:06;76971.88;;;-142.75;100.00
41632;BME280;37452;51.938;4.624;2023-04-22T03:46:32;76975.81;;;-142.75;100.00
41632;BME280;37452;51.938;4.624;2023-04-22T03:48:57;76962.03;;;-142.75;100.00
41632;BME280;37452;51.938;4.624;2023-04-22T03:51:22;76948.25;;;-142.75;100.00
41632;BME280;37452;51.938;4.624;2023-04-22T03:53:47;76950.22;;;-142.75;100.00
41632;BME280;37452;51.938;4.624;2023-04-22T03:56:12;76936.44;;;-142.75;100.00
41632;BME280;37452;51.938;4.624;2023-04-22T03:58:38;76924.63;;;-142.75;100.00
41632;BME280;37452;51.938;4.624;2023-04-22T04:01:03;76906.91;;;-142.75;100.00
41632;BME280;37452;51.938;4.624;2023-04-22T04:03:28;76883.28;;;-142.75;100.00
41632;BME280;37452;51.938;4.624;2023-04-22T04:05:53;76885.25;;;-142.75;100.00
41632;BME280;37452;51.938;4.624;2023-04-22T04:08:18;76875.41;;;-142.75;100.00
41632;BME280;37452;51.938;4.624;2023-04-22T04:10:44;76869.50;;;-142.75;100.00
41632;BME280;37452;51.938;4.624;2023-04-22T04:13:09;76873.44;;;-142.75;100.00
41632;BME280;37452;51.938;4.624;2023-04-22T04:15:35;76869.50;;;-142.75;100.00
41632;BME280;37452;51.938;4.624;2023-04-22T04:18:00;76861.63;;;-142.75;100.00
41632;BME280;37452;51.938;4.624;2023-04-22T04:20:27;76855.72;;;-142.75;100.00
41632;BME280;37452;51.938;4.624;2023-04-22T04:22:52;76853.75;;;-142.75;100.00
41632;BME280;37452;51.938;4.624;2023-04-22T04:25:17;76834.06;;;-142.75;100.00
41632;BME280;37452;51.938;4.624;2023-04-22T04:27:45;76845.88;;;-142.75;100.00
41632;BME280;37452;51.938;4.624;2023-04-22T04:30:10;76830.13;;;-142.75;100.00
41632;BME280;37452;51.938;4.624;2023-04-22T04:32:35;76822.25;;;-142.75;100.00
41632;BME280;37452;51.938;4.624;2023-04-22T04:35:01;76822.25;;;-142.75;100.00
41632;BME280;37452;51.938;4.624;2023-04-22T04:37:27;76818.31;;;-142.75;100.00
41632;BME280;37452;51.938;4.624;2023-04-22T04:39:52;76814.38;;;-142.75;100.00
41632;BME280;37452;51.938;4.624;2023-04-22T04:42:17;76839.97;;;-142.75;100.00
41632;BME280;37452;51.938;4.624;2023-04-22T04:44:43;76851.78;;;-142.75;100.00
41632;BME280;37452;51.938;4.624;2023-04-22T04:47:09;76859.66;;;-142.75;100.00
41632;BME280;37452;51.938;4.624;2023-04-22T04:49:34;76893.13;;;-142.75;100.00
41632;BME280;37452;51.938;4.624;2023-04-22T04:52:03;76901.00;;;-142.75;100.00
41632;BME280;37452;51.938;4.624;2023-04-22T04:54:29;76910.84;;;-142.75;100.00
41632;BME280;37452;51.938;4.624;2023-04-22T04:56:54;76906.91;;;-142.75;100.00
41632;BME280;37452;51.938;4.624;2023-04-22T04:59:21;76893.13;;;-142.75;100.00
41632;BME280;37452;51.938;4.624;2023-04-22T05:01:46;76869.50;;;-142.75;100.00
41632;BME280;37452;51.938;4.624;2023-04-22T05:04:11;76843.91;;;-142.75;100.00
41632;BME280;37452;51.938;4.624;2023-04-22T05:06:36;76826.19;;;-142.75;100.00
41632;BME280;37452;51.938;4.624;2023-04-22T05:09:02;76820.28;;;-142.75;100.00
41632;BME280;37452;51.938;4.624;2023-04-22T05:11:27;76826.19;;;-142.75;100.00
41632;BME280;37452;51.938;4.624;2023-04-22T05:13:52;76816.34;;;-142.75;100.00
41632;BME280;37452;51.938;4.624;2023-04-22T05:16:17;76818.31;;;-142.75;100.00
41632;BME280;37452;51.938;4.624;2023-04-22T05:18:43;76824.22;;;-142.75;100.00
41632;BME280;37452;51.938;4.624;2023-04-22T05:21:08;76826.19;;;-142.75;100.00
41632;BME280;37452;51.938;4.624;2023-04-22T05:23:33;76828.16;;;-142.75;100.00
41632;BME280;37452;51.938;4.624;2023-04-22T05:25:59;76810.44;;;-142.75;100.00
41632;BME280;37452;51.938;4.624;2023-04-22T05:28:24;76816.34;;;-142.75;100.00
41632;BME280;37452;51.938;4.624;2023-04-22T05:30:49;76816.34;;;-142.75;100.00
41632;BME280;37452;51.938;4.624;2023-04-22T05:33:14;76816.34;;;-142.75;100.00
41632;BME280;37452;51.938;4.624;2023-04-22T05:35:40;76810.44;;;-142.75;100.00
41632;BME280;37452;51.938;4.624;2023-04-22T05:38:05;76818.31;;;-142.75;100.00
41632;BME280;37452;51.938;4.624;2023-04-22T05:40:30;76818.31;;;-142.75;100.00
41632;BME280;37452;51.938;4.624;2023-04-22T05:42:56;76808.50;;;-142.75;100.00
41632;BME280;37452;51.938;4.624;2023-04-22T05:45:21;76806.50;;;-142.75;100.00
41632;BME280;37452;51.938;4.624;2023-04-22T05:47:46;76782.91;;;-142.75;100.00
41632;BME280;37452;51.938;4.624;2023-04-22T05:50:12;76790.78;;;-142.75;100.00
41632;BME280;37452;51.938;4.624;2023-04-22T05:52:37;76775.03;;;-142.75;100.00
41632;BME280;37452;51.938;4.624;2023-04-22T05:55:03;76775.03;;;-142.75;100.00
41632;BME280;37452;51.938;4.624;2023-04-22T05:57:28;76767.16;;;-142.75;100.00
41632;BME280;37452;51.938;4.624;2023-04-22T05:59:53;76757.31;;;-142.75;100.00
41632;BME280;37452;51.938;4.624;2023-04-22T06:02:18;76739.59;;;-142.75;100.00
41632;BME280;37452;51.938;4.624;2023-04-22T06:04:44;76731.72;;;-142.75;100.00
41632;BME280;37452;51.938;4.624;2023-04-22T06:07:09;76719.91;;;-142.75;100.00
41632;BME280;37452;51.938;4.624;2023-04-22T06:09:34;76714.00;;;-142.75;100.00
41632;BME280;37452;51.938;4.624;2023-04-22T06:12:00;76700.22;;;-142.75;100.00
41632;BME280;37452;51.938;4.624;2023-04-22T06:14:26;76682.50;;;-142.75;100.00
41632;BME280;37452;51.938;4.624;2023-04-22T06:16:51;76684.47;;;-142.75;100.00
41632;BME280;37452;51.938;4.624;2023-04-22T06:19:17;76682.50;;;-142.75;100.00
41632;BME280;37452;51.938;4.624;2023-04-22T06:21:43;76678.56;;;-142.75;100.00
41632;BME280;37452;51.938;4.624;2023-04-22T06:24:08;76666.75;;;-142.75;100.00
41632;BME280;37452;51.938;4.624;2023-04-22T06:26:35;76670.69;;;-142.75;100.00
41632;BME280;37452;51.938;4.624;2023-04-22T06:29:00;76662.81;;;-142.75;100.00
41632;BME280;37452;51.938;4.624;2023-04-22T06:31:26;76662.81;;;-142.75;100.00
41632;BME280;37452;51.938;4.624;2023-04-22T06:33:52;76662.81;;;-142.75;100.00
41632;BME280;37452;51.938;4.624;2023-04-22T06:36:17;76641.16;;;-142.75;100.00
41632;BME280;37452;51.938;4.624;2023-04-22T06:38:42;76633.28;;;-142.75;100.00
41632;BME280;37452;51.938;4.624;2023-04-22T06:41:07;76613.59;;;-142.75;100.00
41632;BME280;37452;51.938;4.624;2023-04-22T06:43:32;76597.84;;;-142.75;100.00
41632;BME280;37452;51.938;4.624;2023-04-22T06:45:58;76589.97;;;-142.75;100.00
41632;BME280;37452;51.938;4.624;2023-04-22T06:48:23;76578.16;;;-142.75;100.00
41632;BME280;37452;51.938;4.624;2023-04-22T06:50:48;76570.28;;;-142.75;100.00
41632;BME280;37452;51.938;4.624;2023-04-22T06:53:13;76552.56;;;-142.75;100.00
41632;BME280;37452;51.938;4.624;2023-04-22T06:55:39;76542.72;;;-142.75;100.00
41632;BME280;37452;51.938;4.624;2023-04-22T06:58:04;76532.88;;;-142.75;100.00
41632;BME280;37452;51.938;4.624;2023-04-22T07:00:29;76528.97;;;-142.75;100.00
41632;BME280;37452;51.938;4.624;2023-04-22T07:02:54;76527.00;;;-142.75;100.00
41632;BME280;37452;51.938;4.624;2023-04-22T07:05:20;76515.19;;;-142.75;100.00
41632;BME280;37452;51.938;4.624;2023-04-22T07:07:45;76507.31;;;-142.75;100.00
41632;BME280;37452;51.938;4.624;2023-04-22T07:10:10;76525.03;;;-142.75;100.00
41632;BME280;37452;51.938;4.624;2023-04-22T07:12:36;76534.84;;;-142.75;100.00
41632;BME280;37452;51.938;4.624;2023-04-22T07:15:01;76534.84;;;-142.75;100.00
41632;BME280;37452;51.938;4.624;2023-04-22T07:17:27;76560.44;;;-142.75;100.00
41632;BME280;37452;51.938;4.624;2023-04-22T07:19:52;76525.03;;;-142.75;100.00
41632;BME280;37452;51.938;4.624;2023-04-22T07:22:17;76503.38;;;-142.75;100.00
41632;BME280;37452;51.938;4.624;2023-04-22T07:24:42;76493.53;;;-142.75;100.00
41632;BME280;37452;51.938;4.624;2023-04-22T07:27:08;76517.16;;;-142.75;100.00
41632;BME280;37452;51.938;4.624;2023-04-22T07:29:33;76509.28;;;-142.75;100.00
41632;BME280;37452;51.938;4.624;2023-04-22T07:31:58;76515.19;;;-142.75;100.00
41632;BME280;37452;51.938;4.624;2023-04-22T07:34:23;76509.28;;;-142.75;100.00
41632;BME280;37452;51.938;4.624;2023-04-22T07:36:49;76507.31;;;-142.75;100.00
41632;BME280;37452;51.938;4.624;2023-04-22T07:39:15;76487.63;;;-142.75;100.00
41632;BME280;37452;51.938;4.624;2023-04-22T07:41:40;76475.81;;;-142.75;100.00
41632;BME280;37452;51.938;4.624;2023-04-22T07:44:05;76454.16;;;-142.75;100.00
41632;BME280;37452;51.938;4.624;2023-04-22T07:46:31;76436.44;;;-142.75;100.00
41632;BME280;37452;51.938;4.624;2023-04-22T07:48:56;76373.44;;;-142.75;100.00
41632;BME280;37452;51.938;4.624;2023-04-22T07:51:21;76326.22;;;-142.75;100.00
41632;BME280;37452;51.938;4.624;2023-04-22T07:53:46;76277.00;;;-142.75;100.00
41632;BME280;37452;51.938;4.624;2023-04-22T07:56:12;76257.31;;;-142.75;100.00
41632;BME280;37452;51.938;4.624;2023-04-22T07:58:37;76269.13;;;-142.75;100.00
41632;BME280;37452;51.938;4.624;2023-04-22T08:01:02;76269.13;;;-142.75;100.00
41632;BME280;37452;51.938;4.624;2023-04-22T08:03:27;76223.84;;;-142.75;100.00
41632;BME280;37452;51.938;4.624;2023-04-22T08:05:52;76192.38;;;-142.75;100.00
41632;BME280;37452;51.938;4.624;2023-04-22T08:08:18;76162.84;;;-142.75;100.00
41632;BME280;37452;51.938;4.624;2023-04-22T08:10:43;76160.88;;;-142.75;100.00
41632;BME280;37452;51.938;4.624;2023-04-22T08:13:08;76178.59;;;-142.75;100.00
41632;BME280;37452;51.938;4.624;2023-04-22T08:15:33;76180.56;;;-142.75;100.00
41632;BME280;37452;51.938;4.624;2023-04-22T08:17:59;76133.31;;;-142.75;100.00
41632;BME280;37452;51.938;4.624;2023-04-22T08:20:24;76099.84;;;-142.75;100.00
41632;BME280;37452;51.938;4.624;2023-04-22T08:22:49;76111.66;;;-142.75;100.00
41632;BME280;37452;51.938;4.624;2023-04-22T08:25:16;76109.69;;;-142.75;100.00
41632;BME280;37452;51.938;4.624;2023-04-22T08:27:41;76064.44;;;-142.75;100.00
41632;BME280;37452;51.938;4.624;2023-04-22T08:30:06;76052.63;;;-142.75;100.00
41632;BME280;37452;51.938;4.624;2023-04-22T08:32:32;76042.78;;;-142.75;100.00
41632;BME280;37452;51.938;4.624;2023-04-22T08:34:57;76070.34;;;-142.75;100.00
41632;BME280;37452;51.938;4.624;2023-04-22T08:37:24;76088.03;;;-142.75;100.00
41632;BME280;37452;51.938;4.624;2023-04-22T08:39:49;76003.41;;;-142.75;100.00
41632;BME280;37452;51.938;4.624;2023-04-22T08:42:15;75956.19;;;-142.75;100.00
41632;BME280;37452;51.938;4.624;2023-04-22T08:44:40;75979.78;;;-142.75;100.00
41632;BME280;37452;51.938;4.624;2023-04-22T08:47:05;75979.78;;;-142.75;100.00
41632;BME280;37452;51.938;4.624;2023-04-22T08:49:31;76032.94;;;-142.75;100.00
41632;BME280;37452;51.938;4.624;2023-04-22T08:52:00;75979.78;;;-142.75;100.00
41632;BME280;37452;51.938;4.624;2023-04-22T08:54:26;75960.13;;;-142.75;100.00
41632;BME280;37452;51.938;4.624;2023-04-22T08:56:51;75960.13;;;-142.75;100.00
41632;BME280;37452;51.938;4.624;2023-04-22T08:59:17;75944.38;;;-142.75;100.00
41632;BME280;37452;51.938;4.624;2023-04-22T09:01:44;75938.47;;;-142.75;100.00
41632;BME280;37452;51.938;4.624;2023-04-22T09:04:13;75973.88;;;-142.75;100.00
41632;BME280;37452;51.938;4.624;2023-04-22T09:06:38;75979.78;;;-142.75;100.00
41632;BME280;37452;51.938;4.624;2023-04-22T09:09:04;75979.78;;;-142.75;100.00
41632;BME280;37452;51.938;4.624;2023-04-22T09:11:30;76038.84;;;-142.75;100.00
41632;BME280;37452;51.938;4.624;2023-04-22T09:13:55;76070.34;;;-142.75;100.00
41632;BME280;37452;51.938;4.624;2023-04-22T09:16:21;76048.69;;;-142.75;100.00
41632;BME280;37452;51.938;4.624;2023-04-22T09:18:46;76046.72;;;-142.75;100.00
41632;BME280;37452;51.938;4.624;2023-04-22T09:21:11;76072.31;;;-142.75;100.00
41632;BME280;37452;51.938;4.624;2023-04-22T09:23:50;76078.19;;;-142.75;100.00
41632;BME280;37452;51.938;4.624;2023-04-22T09:26:19;76070.34;;;-142.75;100.00
41632;BME280;37452;51.938;4.624;2023-04-22T09:28:53;76070.34;;;-142.75;100.00
41632;BME280;37452;51.938;4.624;2023-04-22T09:31:19;76068.38;;;-142.75;100.00
41632;BME280;37452;51.938;4.624;2023-04-22T09:33:52;76090.00;;;-142.75;100.00
41632;BME280;37452;51.938;4.624;2023-04-22T09:36:35;76058.53;;;-142.75;100.00
41632;BME280;37452;51.938;4.624;2023-04-22T09:39:07;76003.41;;;-142.75;100.00
41632;BME280;37452;51.938;4.624;2023-04-22T09:41:35;75987.66;;;-142.75;100.00
41632;BME280;37452;51.938;4.624;2023-04-22T09:44:02;75979.78;;;-142.75;100.00
41632;BME280;37452;51.938;4.624;2023-04-22T09:46:28;76003.41;;;-142.75;100.00
41632;BME280;37452;51.938;4.624;2023-04-22T09:48:54;75956.19;;;-142.75;100.00
41632;BME280;37452;51.938;4.624;2023-04-22T09:51:19;75973.88;;;-142.75;100.00
41632;BME280;37452;51.938;4.624;2023-04-22T09:53:55;75920.75;;;-142.75;100.00
41632;BME280;37452;51.938;4.624;2023-04-22T09:56:20;75948.31;;;-142.75;100.00
41632;BME280;37452;51.938;4.624;2023-04-22T09:58:50;75916.81;;;-142.75;100.00
41632;BME280;37452;51.938;4.624;2023-04-22T10:01:16;75944.38;;;-142.75;100.00
41632;BME280;37452;51.938;4.624;2023-04-22T10:03:41;75936.50;;;-142.75;100.00
41632;BME280;37452;51.938;4.624;2023-04-22T10:06:06;75920.75;;;-142.75;100.00
41632;BME280;37452;51.938;4.624;2023-04-22T10:08:31;75964.03;;;-142.75;100.00
41632;BME280;37452;51.938;4.624;2023-04-22T10:10:57;76005.38;;;-142.75;100.00
41632;BME280;37452;51.938;4.624;2023-04-22T10:13:22;75997.50;;;-142.75;100.00
41632;BME280;37452;51.938;4.624;2023-04-22T10:15:48;75989.63;;;-142.75;100.00
41632;BME280;37452;51.938;4.624;2023-04-22T10:18:15;75997.50;;;-142.75;100.00
41632;BME280;37452;51.938;4.624;2023-04-22T10:20:42;76013.25;;;-142.75;100.00
41632;BME280;37452;51.938;4.624;2023-04-22T10:23:17;76036.88;;;-142.75;100.00
41632;BME280;37452;51.938;4.624;2023-04-22T10:25:42;76048.69;;;-142.75;100.00
41632;BME280;37452;51.938;4.624;2023-04-22T10:28:10;76082.13;;;-142.75;100.00
41632;BME280;37452;51.938;4.624;2023-04-22T10:30:37;76103.78;;;-142.75;100.00
41632;BME280;37452;51.938;4.624;2023-04-22T10:36:14;76115.59;;;-142.75;100.00
41632;BME280;37452;51.938;4.624;2023-04-22T10:39:14;76105.75;;;-142.75;100.00
41632;BME280;37452;51.938;4.624;2023-04-22T10:41:33;76105.75;;;-142.75;100.00
41632;BME280;37452;51.938;4.624;2023-04-22T10:43:59;76093.94;;;-142.75;100.00
41632;BME280;37452;51.938;4.624;2023-04-22T10:49:22;76131.34;;;-142.75;100.00
41632;BME280;37452;51.938;4.624;2023-04-22T10:51:47;76115.59;;;-142.75;100.00
41632;BME280;37452;51.938;4.624;2023-04-22T10:54:57;76111.66;;;-142.75;100.00
41632;BME280;37452;51.938;4.624;2023-04-22T10:57:11;76105.75;;;-142.75;100.00
41632;BME280;37452;51.938;4.624;2023-04-22T11:02:05;76076.22;;;-142.75;100.00
41632;BME280;37452;51.938;4.624;2023-04-22T11:04:30;76125.44;;;-142.75;100.00
41632;BME280;37452;51.938;4.624;2023-04-22T11:07:16;76117.56;;;-142.75;100.00
41632;BME280;37452;51.938;4.624;2023-04-22T11:15:05;76143.16;;;-142.75;100.00
41632;BME280;37452;51.938;4.624;2023-04-22T11:17:31;76172.69;;;-142.75;100.00
41632;BME280;37452;51.938;4.624;2023-04-22T11:19:57;76186.47;;;-142.75;100.00
41632;BME280;37452;51.938;4.624;2023-04-22T11:22:22;76184.50;;;-142.75;100.00
41632;BME280;37452;51.938;4.624;2023-04-22T11:27:19;76200.25;;;-142.75;100.00
41632;BME280;37452;51.938;4.624;2023-04-22T11:29:59;76192.38;;;-142.75;100.00
41632;BME280;37452;51.938;4.624;2023-04-22T11:32:25;76210.06;;;-142.75;100.00
41632;BME280;37452;51.938;4.624;2023-04-22T11:34:50;76229.75;;;-142.75;100.00
41632;BME280;37452;51.938;4.624;2023-04-22T11:37:17;76200.25;;;-142.75;100.00
41632;BME280;37452;51.938;4.624;2023-04-22T11:39:42;76190.41;;;-142.75;100.00
41632;BME280;37452;51.938;4.624;2023-04-22T11:42:08;76215.97;;;-142.75;100.00
41632;BME280;37452;51.938;4.624;2023-04-22T11:44:33;76235.66;;;-142.75;100.00
41632;BME280;37452;51.938;4.624;2023-04-22T11:46:58;76237.63;;;-142.75;100.00
41632;BME280;37452;51.938;4.624;2023-04-22T11:49:24;76255.34;;;-142.75;100.00
41632;BME280;37452;51.938;4.624;2023-04-22T11:51:51;76239.59;;;-142.75;100.00
41632;BME280;37452;51.938;4.624;2023-04-22T11:54:17;76223.84;;;-142.75;100.00
41632;BME280;37452;51.938;4.624;2023-04-22T11:56:52;76239.59;;;-142.75;100.00
41632;BME280;37452;51.938;4.624;2023-04-22T11:59:18;76249.44;;;-142.75;100.00
41632;BME280;37452;51.938;4.624;2023-04-22T12:01:43;76257.31;;;-142.75;100.00
41632;BME280;37452;51.938;4.624;2023-04-22T12:04:10;76251.41;;;-142.75;100.00
41632;BME280;37452;51.938;4.624;2023-04-22T12:06:35;76219.91;;;-142.75;100.00
41632;BME280;37452;51.938;4.624;2023-04-22T12:09:04;76223.84;;;-142.75;100.00
41632;BME280;37452;51.938;4.624;2023-04-22T12:11:31;76212.03;;;-142.75;100.00
41632;BME280;37452;51.938;4.624;2023-04-22T12:13:56;76208.09;;;-142.75;100.00
41632;BME280;37452;51.938;4.624;2023-04-22T12:16:29;76188.44;;;-142.75;100.00
41632;BME280;37452;51.938;4.624;2023-04-22T12:19:03;76215.97;;;-142.75;100.00
41632;BME280;37452;51.938;4.624;2023-04-22T12:21:28;76243.53;;;-142.75;100.00
41632;BME280;37452;51.938;4.624;2023-04-22T12:26:24;76215.97;;;-142.75;100.00
41632;BME280;37452;51.938;4.624;2023-04-22T12:28:53;76223.84;;;-142.75;100.00
41632;BME280;37452;51.938;4.624;2023-04-22T12:31:18;76239.59;;;-142.75;100.00
41632;BME280;37452;51.938;4.624;2023-04-22T12:33:44;76214.00;;;-142.75;100.00
41632;BME280;37452;51.938;4.624;2023-04-22T12:36:09;76223.84;;;-142.75;100.00
41632;BME280;37452;51.938;4.624;2023-04-22T12:38:35;76215.97;;;-142.75;100.00
41632;BME280;37452;51.938;4.624;2023-04-22T12:41:00;76174.66;;;-142.75;100.00
41632;BME280;37452;51.938;4.624;2023-04-22T12:43:26;76164.81;;;-142.75;100.00